Batesville, AR

12:00 AM CST on January 24, 2018 (GMT -0600)
Batesville Regional

Weather History for KBVX - March, 2013

Change the Weather History Date:

Sunday, March 10, 2013

  Actual Average Record
Temperature  
Mean Temperature 53 °F -  
Max Temperature 62 °F 62 °F 82 °F (1955)
Min Temperature 44 °F 38 °F 17 °F (1998)
Degree Days  
Heating Degree Days 12    
Growing Degree Days 3 (Base 50)    
Moisture  
Dew Point 49 °F    
Average Humidity 77    
Maximum Humidity 100    
Minimum Humidity 52    
Precipitation  
Precipitation 0.75 in - - ()
Sea Level Pressure  
Sea Level Pressure 29.79 in    
Wind  
Wind Speed 12 mph (SSW)    
Max Wind Speed 17 mph    
Max Gust Speed 28 mph    
Visibility 10 miles    
Events      
Averages and records for this station are not official NWS values.
T = Trace of Precipitation, MM = Missing Value Source: NWS Daily Summary

Daily Weather History Graph

Daily Weather History Graph

Search for Another Location

Airport or City:

Trip Planner

Search our weather history database for the weather conditions in past years. The results will help you decide how hot, cold, wet, or windy it might be!

Date:

Astronomy

Mar. 10, 2013 Rise Set
Actual Time 7:23 AM CDT 7:10 PM CDT
Civil Twilight 6:58 AM CDT 7:35 PM CDT
Nautical Twilight 6:28 AM CDT 8:05 PM CDT
Astronomical Twilight 5:59 AM CDT 8:34 PM CDT
Moon 6:22 AM CDT (3/10) 6:18 PM CDT (3/10)
Length of Visible Light 12h 37m
Length of Day
11h 46m
Waning Crescent, 2% of the Moon is Illuminated
Mar 10
Waning Crescent
Mar 11
New
Mar 19
First Quarter
Mar 27
Full
Apr 2
Last Quarter

Hourly Weather History & Observations

Time (CDT) Temp. Windchill Dew Point Humidity Pressure Visibility Wind Dir Wind Speed Gust Speed Precip Events Conditions
12:15 AM 62.6 °F - 44.6 °F 52% 29.84 in 10.0 mi SSE 13.8 mph 19.6 mph N/A   Partly Cloudy
12:35 AM 62.6 °F - 44.6 °F 52% 29.84 in 10.0 mi South 10.4 mph 19.6 mph N/A   Partly Cloudy
12:55 AM 62.6 °F - 46.4 °F 55% 29.83 in 10.0 mi South 15.0 mph 23.0 mph N/A   Partly Cloudy
1:15 AM 62.6 °F - 48.2 °F 59% 29.83 in 10.0 mi South 16.1 mph 24.2 mph N/A   Partly Cloudy
1:35 AM 62.6 °F - 48.2 °F 59% 29.83 in 10.0 mi South 16.1 mph 24.2 mph N/A   Clear
1:55 AM 62.6 °F - 51.8 °F 68% 29.81 in 10.0 mi South 13.8 mph 25.3 mph N/A   Clear
3:15 AM 62.6 °F - 51.8 °F 68% 29.80 in 10.0 mi South 15.0 mph 25.3 mph N/A   Clear
3:35 AM 62.6 °F - 51.8 °F 68% 29.78 in 10.0 mi SSE 16.1 mph 26.5 mph N/A   Clear
3:55 AM 62.6 °F - 53.6 °F 72% 29.79 in 10.0 mi South 13.8 mph 23.0 mph N/A   Partly Cloudy
4:15 AM 62.6 °F - 53.6 °F 72% 29.79 in 10.0 mi South 11.5 mph 20.7 mph N/A   Mostly Cloudy
4:35 AM 62.6 °F - 53.6 °F 72% 29.80 in 10.0 mi South 12.7 mph 25.3 mph N/A   Overcast
4:55 AM 62.6 °F - 53.6 °F 72% 29.78 in 10.0 mi South 13.8 mph 21.9 mph N/A   Overcast
5:15 AM 62.6 °F - 53.6 °F 72% 29.79 in 10.0 mi SSE 12.7 mph 23.0 mph N/A   Overcast
5:35 AM 62.6 °F - 53.6 °F 72% 29.79 in 10.0 mi SSE 10.4 mph 20.7 mph N/A   Overcast
5:55 AM 62.6 °F - 51.8 °F 68% 29.79 in 10.0 mi South 16.1 mph 26.5 mph N/A   Overcast
6:15 AM 62.6 °F - 53.6 °F 72% 29.78 in 10.0 mi South 11.5 mph 24.2 mph N/A   Overcast
7:35 AM 62.6 °F - 53.6 °F 72% 29.73 in 10.0 mi SSE 13.8 mph 27.6 mph N/A   Overcast
7:55 AM 62.6 °F - 55.4 °F 77% 29.74 in 10.0 mi SSE 13.8 mph 19.6 mph N/A   Overcast
8:15 AM 60.8 °F - 55.4 °F 82% 29.72 in 10.0 mi SE 11.5 mph 19.6 mph N/A   Overcast
8:35 AM 60.8 °F - 53.6 °F 77% 29.72 in 10.0 mi SSE 17.3 mph 24.2 mph N/A   Overcast
8:55 AM 60.8 °F - 53.6 °F 77% 29.73 in 10.0 mi SSE 13.8 mph 25.3 mph N/A   Overcast
9:15 AM 60.8 °F - 53.6 °F 77% 29.75 in 5.0 mi South 15.0 mph 20.7 mph 0.02 in   Overcast
9:35 AM 59.0 °F - 55.4 °F 88% 29.73 in 6.0 mi SSE 13.8 mph 21.9 mph 0.13 in   Overcast
9:55 AM 59.0 °F - 55.4 °F 88% 29.71 in 5.0 mi SSE 13.8 mph 20.7 mph 0.17 in   Overcast
10:15 AM 60.8 °F - 55.4 °F 82% 29.72 in 6.0 mi South 12.7 mph 20.7 mph 0.01 in   Overcast
10:35 AM 60.8 °F - 55.4 °F 82% 29.73 in 6.0 mi SSW 5.8 mph 16.1 mph 0.02 in   Overcast
10:55 AM 55.4 °F - 53.6 °F 94% 29.76 in 9.0 mi NW 13.8 mph 20.7 mph 0.12 in   Overcast
11:15 AM 53.6 °F - 51.8 °F 94% 29.78 in 10.0 mi NW 12.7 mph 18.4 mph 0.09 in   Overcast
11:35 AM 51.8 °F - 48.2 °F 88% 29.81 in 10.0 mi WNW 10.4 mph 17.3 mph 0.14 in   Overcast
11:55 AM 51.8 °F - 50.0 °F 94% 29.83 in 10.0 mi WNW 8.1 mph 18.4 mph 0.25 in   Overcast
12:15 PM 51.8 °F - 50.0 °F 94% 29.82 in 10.0 mi WNW 3.5 mph - 0.06 in   Overcast
12:35 PM 51.8 °F - 51.8 °F 100% 29.80 in 10.0 mi Calm Calm - 0.07 in   Overcast
12:55 PM 51.8 °F - 50.0 °F 94% 29.78 in 10.0 mi NW 3.5 mph - 0.09 in   Overcast
1:15 PM 51.8 °F - 50.0 °F 94% 29.75 in 10.0 mi NNE 3.5 mph - 0.01 in   Overcast
1:35 PM 51.8 °F - 48.2 °F 88% 29.79 in 8.0 mi South 5.8 mph - 0.04 in   Overcast
1:55 PM 51.8 °F - 51.8 °F 100% 29.77 in 10.0 mi ESE 9.2 mph - 0.07 in   Overcast
2:15 PM 53.6 °F - 51.8 °F 94% 29.75 in 10.0 mi ESE 9.2 mph - 0.01 in   Mostly Cloudy
2:35 PM 51.8 °F - 51.8 °F 100% 29.73 in 10.0 mi ESE 8.1 mph - 0.01 in   Overcast
2:55 PM 53.6 °F - 51.8 °F 94% 29.75 in 10.0 mi Calm Calm - 0.02 in   Overcast
3:15 PM 53.6 °F - 51.8 °F 94% 29.77 in 5.0 mi Calm Calm - 0.03 in   Overcast
3:35 PM 55.4 °F - 51.8 °F 88% 29.77 in 10.0 mi South 8.1 mph - 0.03 in   Mostly Cloudy
3:55 PM 55.4 °F - 51.8 °F 88% 29.77 in 10.0 mi SW 10.4 mph 18.4 mph 0.03 in   Mostly Cloudy
4:15 PM 57.2 °F - 53.6 °F 88% 29.77 in 10.0 mi SW 12.7 mph - N/A   Overcast
4:35 PM 55.4 °F - 51.8 °F 88% 29.78 in 10.0 mi SW 9.2 mph 16.1 mph N/A   Overcast
4:55 PM 57.2 °F - 50.0 °F 77% 29.76 in 10.0 mi SSW 9.2 mph - N/A   Overcast
5:15 PM 57.2 °F - 48.2 °F 72% 29.75 in 10.0 mi South 10.4 mph 16.1 mph N/A   Scattered Clouds
5:35 PM 59.0 °F - 48.2 °F 67% 29.74 in 10.0 mi SSW 11.5 mph - N/A   Scattered Clouds
5:55 PM 59.0 °F - 48.2 °F 67% 29.74 in 10.0 mi SSW 10.4 mph - N/A   Mostly Cloudy
6:15 PM 57.2 °F - 48.2 °F 72% 29.75 in 10.0 mi South 8.1 mph - N/A   Overcast
6:35 PM 57.2 °F - 48.2 °F 72% 29.74 in 10.0 mi South 8.1 mph - N/A   Mostly Cloudy
6:55 PM 57.2 °F - 48.2 °F 72% 29.76 in 10.0 mi West 13.8 mph 20.7 mph N/A   Mostly Cloudy
7:15 PM 55.4 °F - 44.6 °F 67% 29.78 in 10.0 mi WSW 13.8 mph - N/A   Mostly Cloudy
7:35 PM 53.6 °F - 44.6 °F 72% 29.79 in 10.0 mi West 9.2 mph 17.3 mph N/A   Overcast
7:55 PM 53.6 °F - 42.8 °F 67% 29.80 in 10.0 mi WSW 12.7 mph - N/A   Overcast
8:15 PM 51.8 °F - 42.8 °F 71% 29.81 in 10.0 mi West 11.5 mph - N/A   Overcast
8:35 PM 51.8 °F - 41.0 °F 67% 29.83 in 10.0 mi WSW 10.4 mph - N/A   Overcast
8:55 PM 50.0 °F - 39.2 °F 66% 29.83 in 10.0 mi WSW 13.8 mph - N/A   Overcast
9:15 PM 48.2 °F - 39.2 °F 71% 29.83 in 10.0 mi West 10.4 mph - N/A   Overcast
9:35 PM 48.2 °F - 39.2 °F 71% 29.84 in 10.0 mi WSW 9.2 mph - N/A   Overcast
9:55 PM 48.2 °F - 39.2 °F 71% 29.85 in 10.0 mi WSW 9.2 mph - N/A   Overcast
10:15 PM 46.4 °F 41.1 °F 39.2 °F 76% 29.86 in 10.0 mi WSW 11.5 mph - N/A   Mostly Cloudy
10:35 PM 46.4 °F 42.4 °F 39.2 °F 76% 29.87 in 10.0 mi WSW 8.1 mph - N/A   Mostly Cloudy
10:55 PM 46.4 °F 41.5 °F 39.2 °F 76% 29.87 in 10.0 mi WSW 10.4 mph - N/A   Overcast
11:15 PM 46.4 °F 41.5 °F 37.4 °F 71% 29.88 in 10.0 mi WSW 10.4 mph - N/A   Overcast
11:35 PM 44.6 °F 41.4 °F 37.4 °F 76% 29.87 in 10.0 mi West 5.8 mph - N/A   Overcast
12:35 AM 44.6 °F 40.7 °F 35.6 °F 71% 29.87 in 10.0 mi West 6.9 mph - N/A   Overcast
12:55 AM 44.6 °F 40.2 °F 35.6 °F 71% 29.88 in 10.0 mi West 8.1 mph - N/A   Overcast